Time,TemperatureF,DewpointF,PressureIn,WindDirection,WindDirectionDegrees,WindSpeedMPH,WindSpeedGustMPH,Humidity,HourlyPrecipIn,Conditions,Clouds,dailyrainin,SoftwareType,DateUTC
2013-12-10 00:01:00,31.7,30.4,30.27,East,79,0.0,0.0,95,0.00,,---,0.00,VWS V14.01,2013-12-10 05:01:00,
2013-12-10 00:02:00,31.7,30.4,30.27,East,79,0.0,0.0,95,0.00,,---,0.00,VWS V14.01,2013-12-10 05:02:00,
2013-12-10 00:03:00,31.7,30.4,30.27,East,79,0.0,0.0,95,0.00,,---,0.00,VWS V14.01,2013-12-10 05:03:00,
2013-12-10 00:08:00,31.5,30.2,30.26,East,79,0.0,0.0,95,0.00,,---,0.00,VWS V14.01,2013-12-10 05:08:00,
2013-12-10 00:14:00,31.6,30.3,30.27,East,79,0.0,0.0,95,0.00,,---,0.00,VWS V14.01,2013-12-10 05:14:00,
2013-12-10 00:19:00,32.0,31.0,30.26,East,79,0.0,0.0,96,0.00,,---,0.00,VWS V14.01,2013-12-10 05:19:00,
2013-12-10 00:24:00,32.1,31.1,30.26,East,79,0.0,0.0,96,0.00,,---,0.00,VWS V14.01,2013-12-10 05:24:00,
2013-12-10 00:29:00,32.0,31.0,30.26,East,79,0.0,0.0,96,0.00,,---,0.00,VWS V14.01,2013-12-10 05:29:00,
2013-12-10 00:34:00,32.0,31.0,30.26,East,79,0.0,0.0,96,0.00,,---,0.00,VWS V14.01,2013-12-10 05:34:00,
2013-12-10 00:39:00,32.4,31.4,30.26,East,79,0.0,1.0,96,0.00,,---,0.00,VWS V14.01,2013-12-10 05:39:00,
2013-12-10 00:44:00,32.0,31.0,30.26,WNW,288,0.0,3.0,96,0.00,,---,0.00,VWS V14.01,2013-12-10 05:44:00,
2013-12-10 00:49:00,31.7,30.4,30.25,WNW,288,0.0,3.0,95,0.00,,---,0.00,VWS V14.01,2013-12-10 05:49:00,
2013-12-10 00:54:00,31.6,30.6,30.25,WNW,288,0.0,3.0,96,0.00,,---,0.00,VWS V14.01,2013-12-10 05:54:00,
2013-12-10 00:59:00,31.6,30.6,30.25,WNW,288,0.0,0.0,96,0.00,,---,0.00,VWS V14.01,2013-12-10 05:59:00,
2013-12-10 01:04:00,31.5,30.5,30.24,WNW,288,0.0,1.0,96,0.00,,---,0.00,VWS V14.01,2013-12-10 06:04:00,
2013-12-10 01:09:00,31.5,30.5,30.24,WNW,288,0.0,1.0,96,0.00,,---,0.00,VWS V14.01,2013-12-10 06:09:00,
2013-12-10 01:14:00,31.9,30.9,30.23,WNW,288,0.0,1.0,96,0.00,,---,0.00,VWS V14.01,2013-12-10 06:14:00,
2013-12-10 01:19:00,31.9,30.9,30.24,WNW,288,0.0,1.0,96,0.00,,---,0.00,VWS V14.01,2013-12-10 06:19:00,
2013-12-10 01:25:00,31.9,30.9,30.24,WNW,288,0.0,1.0,96,0.00,,---,0.00,VWS V14.01,2013-12-10 06:25:00,
2013-12-10 01:30:00,31.8,30.8,30.24,WNW,288,0.0,0.0,96,0.00,,---,0.00,VWS V14.01,2013-12-10 06:30:00,
2013-12-10 01:35:00,31.7,30.7,30.23,WNW,288,0.0,0.0,96,0.00,,---,0.00,VWS V14.01,2013-12-10 06:35:00,
2013-12-10 01:40:00,31.5,30.5,30.23,WNW,288,0.0,0.0,96,0.00,,---,0.00,VWS V14.01,2013-12-10 06:40:00,
2013-12-10 01:45:00,31.4,30.4,30.23,WNW,288,0.0,1.0,96,0.00,,---,0.00,VWS V14.01,2013-12-10 06:45:00,
2013-12-10 01:50:00,31.3,30.3,30.23,WNW,288,0.0,1.0,96,0.00,,---,0.00,VWS V14.01,2013-12-10 06:50:00,
2013-12-10 01:55:00,31.3,30.3,30.24,WNW,288,0.0,1.0,96,0.00,,---,0.00,VWS V14.01,2013-12-10 06:55:00,
2013-12-10 02:00:00,31.3,30.3,30.25,WNW,288,0.0,0.0,96,0.01,,---,0.01,VWS V14.01,2013-12-10 07:00:00,
2013-12-10 02:05:00,31.3,30.3,30.24,WNW,288,0.0,1.0,96,0.01,,---,0.01,VWS V14.01,2013-12-10 07:05:00,
2013-12-10 02:10:00,31.3,30.3,30.24,WNW,288,0.0,1.0,96,0.01,,---,0.01,VWS V14.01,2013-12-10 07:10:00,
2013-12-10 02:15:00,31.3,30.3,30.25,WNW,288,0.0,1.0,96,0.01,,---,0.01,VWS V14.01,2013-12-10 07:15:00,
2013-12-10 02:20:00,31.4,30.4,30.26,WNW,288,0.0,1.0,96,0.01,,---,0.01,VWS V14.01,2013-12-10 07:20:00,
2013-12-10 02:25:00,31.4,30.4,30.27,WNW,288,0.0,1.0,96,0.01,,---,0.01,VWS V14.01,2013-12-10 07:25:00,
2013-12-10 02:30:00,31.5,30.5,30.28,WNW,288,0.0,1.0,96,0.01,,---,0.01,VWS V14.01,2013-12-10 07:30:00,
2013-12-10 02:35:00,31.6,30.6,30.29,WNW,288,0.0,1.0,96,0.01,,---,0.01,VWS V14.01,2013-12-10 07:35:00,
2013-12-10 02:40:00,31.6,30.6,30.27,WNW,288,0.0,1.0,96,0.01,,---,0.01,VWS V14.01,2013-12-10 07:40:00,
2013-12-10 02:45:00,31.6,30.6,30.27,WNW,288,1.0,1.0,96,0.01,,---,0.01,VWS V14.01,2013-12-10 07:45:00,
2013-12-10 02:51:00,31.5,30.5,30.26,WNW,288,0.0,2.0,96,0.01,,---,0.01,VWS V14.01,2013-12-10 07:51:00,
2013-12-10 02:56:00,31.6,30.6,30.26,WNW,288,0.0,2.0,96,0.01,,---,0.01,VWS V14.01,2013-12-10 07:56:00,
2013-12-10 03:01:00,31.7,30.7,30.26,WNW,288,0.0,0.0,96,0.00,,---,0.01,VWS V14.01,2013-12-10 08:01:00,
2013-12-10 03:06:00,31.7,30.7,30.26,WNW,288,0.0,2.0,96,0.00,,---,0.01,VWS V14.01,2013-12-10 08:06:00,
2013-12-10 03:11:00,31.6,30.6,30.26,WNW,288,0.0,2.0,96,0.00,,---,0.01,VWS V14.01,2013-12-10 08:11:00,
2013-12-10 03:16:00,31.5,30.5,30.26,WNW,289,0.0,3.0,96,0.00,,---,0.01,VWS V14.01,2013-12-10 08:16:00,
2013-12-10 03:21:00,31.5,30.5,30.26,WNW,289,0.0,3.0,96,0.00,,---,0.01,VWS V14.01,2013-12-10 08:21:00,
2013-12-10 03:26:00,31.4,30.4,30.25,WNW,289,0.0,3.0,96,0.00,,---,0.01,VWS V14.01,2013-12-10 08:26:00,
2013-12-10 03:31:00,31.5,30.5,30.23,WNW,289,1.0,1.0,96,0.00,,---,0.01,VWS V14.01,2013-12-10 08:31:00,
2013-12-10 03:36:00,31.4,30.4,30.24,WNW,289,1.0,3.0,96,0.00,,---,0.01,VWS V14.01,2013-12-10 08:36:00,
2013-12-10 03:41:00,31.4,30.4,30.23,WNW,292,1.0,3.0,96,0.00,,---,0.01,VWS V14.01,2013-12-10 08:41:00,
2013-12-10 03:46:00,31.4,30.4,30.23,WNW,292,0.0,3.0,96,0.00,,---,0.01,VWS V14.01,2013-12-10 08:46:00,
2013-12-10 03:51:00,31.4,30.4,30.25,WNW,292,0.0,3.0,96,0.00,,---,0.01,VWS V14.01,2013-12-10 08:51:00,
2013-12-10 03:56:00,31.4,30.4,30.25,WNW,292,0.0,3.0,96,0.00,,---,0.01,VWS V14.01,2013-12-10 08:56:00,
2013-12-10 04:01:00,31.5,30.5,30.25,WNW,292,0.0,0.0,96,0.00,,---,0.01,VWS V14.01,2013-12-10 09:01:00,
2013-12-10 04:04:00,31.5,30.5,30.24,WNW,292,0.0,0.0,96,0.00,,---,0.01,VWS V14.01,2013-12-10 09:04:00,
2013-12-10 04:09:00,31.6,30.6,30.24,WNW,292,0.0,1.0,96,0.00,,---,0.01,VWS V14.01,2013-12-10 09:09:00,
2013-12-10 04:14:00,31.7,30.7,30.24,WNW,292,0.0,1.0,96,0.00,,---,0.01,VWS V14.01,2013-12-10 09:14:00,
2013-12-10 04:19:00,31.7,30.7,30.25,WNW,292,0.0,1.0,96,0.00,,---,0.01,VWS V14.01,2013-12-10 09:19:00,
2013-12-10 04:24:00,31.7,30.7,30.27,WNW,292,0.0,1.0,96,0.00,,---,0.01,VWS V14.01,2013-12-10 09:24:00,
2013-12-10 04:29:00,31.6,30.6,30.27,WNW,293,0.0,0.0,96,0.00,,---,0.01,VWS V14.01,2013-12-10 09:29:00,
2013-12-10 04:34:00,31.7,30.7,30.27,WNW,286,1.0,1.0,96,0.00,,---,0.01,VWS V14.01,2013-12-10 09:34:00,
2013-12-10 04:39:00,31.7,30.7,30.26,WNW,286,0.0,2.0,96,0.00,,---,0.01,VWS V14.01,2013-12-10 09:39:00,
2013-12-10 04:44:00,31.7,30.7,30.25,WNW,286,0.0,2.0,96,0.00,,---,0.01,VWS V14.01,2013-12-10 09:44:00,
2013-12-10 04:49:00,31.6,30.6,30.26,WNW,286,0.0,2.0,96,0.00,,---,0.01,VWS V14.01,2013-12-10 09:49:00,
2013-12-10 04:54:00,31.6,30.6,30.25,WNW,287,0.0,2.0,96,0.00,,---,0.01,VWS V14.01,2013-12-10 09:54:00,
2013-12-10 04:59:00,31.6,30.6,30.25,WNW,287,0.0,0.0,96,0.00,,---,0.01,VWS V14.01,2013-12-10 09:59:00,
2013-12-10 05:04:00,31.8,30.8,30.24,NNW,335,0.0,2.0,96,0.00,,---,0.01,VWS V14.01,2013-12-10 10:04:00,
2013-12-10 05:09:00,32.5,31.5,30.25,NNW,335,0.0,2.0,96,0.00,,---,0.01,VWS V14.01,2013-12-10 10:09:00,
2013-12-10 05:14:00,33.7,32.7,30.24,NNW,335,0.0,2.0,96,0.00,,---,0.01,VWS V14.01,2013-12-10 10:14:00,
2013-12-10 05:19:00,34.7,33.7,30.25,NNW,335,0.0,2.0,96,0.00,,---,0.01,VWS V14.01,2013-12-10 10:19:00,
2013-12-10 05:25:00,34.3,33.3,30.25,NNW,335,0.0,2.0,96,0.00,,---,0.01,VWS V14.01,2013-12-10 10:25:00,
2013-12-10 05:30:00,35.6,34.6,30.25,NNW,335,0.0,0.0,96,0.00,,---,0.01,VWS V14.01,2013-12-10 10:30:00,
2013-12-10 05:35:00,35.8,34.8,30.25,NNW,335,0.0,0.0,96,0.00,,---,0.01,VWS V14.01,2013-12-10 10:35:00,
2013-12-10 05:40:00,34.7,33.7,30.25,NNW,335,0.0,0.0,96,0.00,,---,0.01,VWS V14.01,2013-12-10 10:40:00,
2013-12-10 05:45:00,36.6,35.6,30.26,NNW,335,0.0,0.0,96,0.00,,---,0.01,VWS V14.01,2013-12-10 10:45:00,
2013-12-10 05:50:00,37.9,36.9,30.27,NNW,335,0.0,0.0,96,0.00,,---,0.01,VWS V14.01,2013-12-10 10:50:00,
2013-12-10 05:55:00,36.4,35.4,30.26,NNW,335,0.0,0.0,96,0.00,,---,0.01,VWS V14.01,2013-12-10 10:55:00,
2013-12-10 06:00:00,34.8,33.8,30.25,NNW,335,0.0,0.0,96,0.00,,---,0.01,VWS V14.01,2013-12-10 11:00:00,
2013-12-10 06:05:00,33.6,32.6,30.24,NNW,335,0.0,0.0,96,0.00,,---,0.01,VWS V14.01,2013-12-10 11:05:00,
2013-12-10 06:10:00,32.9,31.9,30.24,NNW,335,0.0,0.0,96,0.00,,---,0.01,VWS V14.01,2013-12-10 11:10:00,
2013-12-10 06:15:00,32.6,31.6,30.23,NNW,335,0.0,0.0,96,0.00,,---,0.01,VWS V14.01,2013-12-10 11:15:00,
2013-12-10 06:20:00,32.5,31.5,30.24,NNW,335,0.0,0.0,96,0.00,,---,0.01,VWS V14.01,2013-12-10 11:20:00,
2013-12-10 06:25:00,32.3,31.3,30.24,NNW,335,0.0,0.0,96,0.00,,---,0.01,VWS V14.01,2013-12-10 11:25:00,
2013-12-10 06:30:00,32.3,31.3,30.25,NNW,335,0.0,0.0,96,0.00,,---,0.01,VWS V14.01,2013-12-10 11:30:00,
2013-12-10 06:35:00,32.4,31.4,30.25,NNW,335,0.0,0.0,96,0.00,,---,0.01,VWS V14.01,2013-12-10 11:35:00,
2013-12-10 06:40:00,32.4,31.4,30.25,NNW,335,0.0,0.0,96,0.00,,---,0.01,VWS V14.01,2013-12-10 11:40:00,
2013-12-10 06:45:00,32.4,31.4,30.24,NNW,335,0.0,0.0,96,0.00,,---,0.01,VWS V14.01,2013-12-10 11:45:00,
2013-12-10 06:51:00,32.4,31.4,30.23,NNW,335,0.0,0.0,96,0.00,,---,0.01,VWS V14.01,2013-12-10 11:51:00,
2013-12-10 06:56:00,32.3,31.3,30.22,NNW,335,0.0,0.0,96,0.00,,---,0.01,VWS V14.01,2013-12-10 11:56:00,
2013-12-10 07:01:00,32.2,31.2,30.23,NNW,335,0.0,0.0,96,0.00,,---,0.01,VWS V14.01,2013-12-10 12:01:00,
2013-12-10 07:06:00,32.1,31.1,30.23,NNW,335,0.0,0.0,96,0.00,,---,0.01,VWS V14.01,2013-12-10 12:06:00,
2013-12-10 07:11:00,32.1,31.1,30.23,NNW,335,0.0,0.0,96,0.00,,---,0.01,VWS V14.01,2013-12-10 12:11:00,
2013-12-10 07:16:00,32.1,31.1,30.23,NNW,335,0.0,0.0,96,0.00,,---,0.01,VWS V14.01,2013-12-10 12:16:00,
2013-12-10 07:21:00,32.2,31.2,30.23,NNW,335,0.0,0.0,96,0.00,,---,0.01,VWS V14.01,2013-12-10 12:21:00,
2013-12-10 07:26:00,32.3,31.3,30.23,NNW,335,0.0,0.0,96,0.00,,---,0.01,VWS V14.01,2013-12-10 12:26:00,
2013-12-10 07:31:00,32.4,31.4,30.23,NNW,335,0.0,0.0,96,0.00,,---,0.01,VWS V14.01,2013-12-10 12:31:00,
2013-12-10 07:36:00,33.0,32.0,30.23,NNW,335,0.0,0.0,96,0.00,,---,0.01,VWS V14.01,2013-12-10 12:36:00,
2013-12-10 07:41:00,33.0,32.0,30.23,NNW,335,0.0,0.0,96,0.00,,---,0.01,VWS V14.01,2013-12-10 12:41:00,
2013-12-10 07:46:00,32.9,31.9,30.22,NNW,335,0.0,0.0,96,0.00,,---,0.01,VWS V14.01,2013-12-10 12:46:00,
2013-12-10 07:51:00,32.8,31.8,30.22,NNW,335,0.0,0.0,96,0.00,,---,0.01,VWS V14.01,2013-12-10 12:51:00,
2013-12-10 07:56:00,32.7,31.7,30.22,NNW,335,0.0,0.0,96,0.00,,---,0.01,VWS V14.01,2013-12-10 12:56:00,
2013-12-10 08:01:00,32.7,31.7,30.23,NNW,335,0.0,0.0,96,0.00,,---,0.01,VWS V14.01,2013-12-10 13:01:00,
2013-12-10 08:06:00,32.6,31.6,30.22,NNW,335,0.0,0.0,96,0.00,,---,0.01,VWS V14.01,2013-12-10 13:06:00,
2013-12-10 08:11:00,32.7,31.7,30.22,NNW,335,0.0,0.0,96,0.00,,---,0.01,VWS V14.01,2013-12-10 13:11:00,
2013-12-10 08:17:00,33.0,32.0,30.22,NNW,335,0.0,0.0,96,0.00,,---,0.01,VWS V14.01,2013-12-10 13:17:00,
2013-12-10 08:22:00,32.9,31.9,30.22,NNW,335,0.0,0.0,96,0.00,,---,0.01,VWS V14.01,2013-12-10 13:22:00,
2013-12-10 08:27:00,32.8,31.8,30.21,NNW,335,0.0,0.0,96,0.00,,---,0.01,VWS V14.01,2013-12-10 13:27:00,
2013-12-10 08:32:00,32.8,31.8,30.21,NNW,335,0.0,0.0,96,0.00,,---,0.01,VWS V14.01,2013-12-10 13:32:00,
2013-12-10 08:37:00,32.8,31.8,30.22,NNW,335,0.0,0.0,96,0.00,,---,0.01,VWS V14.01,2013-12-10 13:37:00,
2013-12-10 08:42:00,32.8,31.8,30.20,NNW,335,0.0,0.0,96,0.00,,---,0.01,VWS V14.01,2013-12-10 13:42:00,
2013-12-10 08:47:00,32.9,31.9,30.20,NNW,335,0.0,0.0,96,0.01,,---,0.02,VWS V14.01,2013-12-10 13:47:00,
2013-12-10 08:52:00,32.8,31.8,30.20,NNW,335,0.0,0.0,96,0.01,,---,0.02,VWS V14.01,2013-12-10 13:52:00,
2013-12-10 08:57:00,32.7,31.7,30.19,NNW,335,0.0,0.0,96,0.01,,---,0.02,VWS V14.01,2013-12-10 13:57:00,
2013-12-10 09:02:00,32.6,31.6,30.19,NNW,335,0.0,0.0,96,0.01,,---,0.02,VWS V14.01,2013-12-10 14:02:00,
2013-12-10 09:07:00,32.8,31.8,30.22,NNW,335,0.0,0.0,96,0.01,,---,0.02,VWS V14.01,2013-12-10 14:07:00,
2013-12-10 09:12:00,32.8,31.8,30.21,NNW,335,0.0,0.0,96,0.01,,---,0.02,VWS V14.01,2013-12-10 14:12:00,
2013-12-10 09:17:00,32.9,31.9,30.20,NNW,335,0.0,0.0,96,0.01,,---,0.02,VWS V14.01,2013-12-10 14:17:00,
2013-12-10 09:22:00,32.9,31.9,30.21,NNW,335,0.0,0.0,96,0.01,,---,0.02,VWS V14.01,2013-12-10 14:22:00,
2013-12-10 09:27:00,32.9,31.9,30.20,NNW,335,0.0,0.0,96,0.01,,---,0.02,VWS V14.01,2013-12-10 14:27:00,
2013-12-10 09:32:00,32.9,31.9,30.21,NNW,335,0.0,0.0,96,0.01,,---,0.02,VWS V14.01,2013-12-10 14:32:00,
2013-12-10 09:37:00,32.9,31.9,30.22,NNW,335,0.0,0.0,96,0.01,,---,0.02,VWS V14.01,2013-12-10 14:37:00,
2013-12-10 09:43:00,32.9,31.9,30.21,NNW,335,0.0,0.0,96,0.01,,---,0.02,VWS V14.01,2013-12-10 14:43:00,
2013-12-10 09:48:00,32.8,31.8,30.22,NNW,335,0.0,0.0,96,0.01,,---,0.02,VWS V14.01,2013-12-10 14:48:00,
2013-12-10 09:53:00,32.8,31.8,30.22,NNW,335,0.0,0.0,96,0.01,,---,0.02,VWS V14.01,2013-12-10 14:53:00,
2013-12-10 09:58:00,32.9,31.9,30.22,NNW,335,0.0,0.0,96,0.01,,---,0.02,VWS V14.01,2013-12-10 14:58:00,
2013-12-10 10:03:00,33.2,32.2,30.22,NNW,335,0.0,0.0,96,0.00,,---,0.02,VWS V14.01,2013-12-10 15:03:00,
2013-12-10 10:08:00,33.2,32.2,30.21,NNW,335,0.0,0.0,96,0.00,,---,0.02,VWS V14.01,2013-12-10 15:08:00,
2013-12-10 10:13:00,33.1,32.1,30.22,NNW,335,0.0,0.0,96,0.00,,---,0.02,VWS V14.01,2013-12-10 15:13:00,
2013-12-10 10:18:00,33.0,32.0,30.22,NNW,335,0.0,0.0,96,0.00,,---,0.02,VWS V14.01,2013-12-10 15:18:00,
2013-12-10 10:23:00,33.1,32.1,30.22,NNW,335,0.0,0.0,96,0.00,,---,0.02,VWS V14.01,2013-12-10 15:23:00,
2013-12-10 10:28:00,33.1,32.1,30.21,NNW,335,0.0,0.0,96,0.00,,---,0.02,VWS V14.01,2013-12-10 15:28:00,
2013-12-10 10:33:00,33.0,32.0,30.21,NNW,335,0.0,1.0,96,0.00,,---,0.02,VWS V14.01,2013-12-10 15:33:00,
2013-12-10 10:38:00,33.0,32.0,30.21,NNW,335,0.0,1.0,96,0.00,,---,0.02,VWS V14.01,2013-12-10 15:38:00,
2013-12-10 10:43:00,33.2,32.2,30.22,NNW,335,0.0,1.0,96,0.00,,---,0.02,VWS V14.01,2013-12-10 15:43:00,
2013-12-10 10:48:00,33.2,32.2,30.22,NNW,335,0.0,1.0,96,0.00,,---,0.02,VWS V14.01,2013-12-10 15:48:00,
2013-12-10 10:54:00,33.2,32.2,30.22,NNW,335,1.0,1.0,96,0.00,,---,0.02,VWS V14.01,2013-12-10 15:54:00,
2013-12-10 10:59:00,33.2,32.2,30.22,NNW,335,0.0,0.0,96,0.00,,---,0.02,VWS V14.01,2013-12-10 15:59:00,
2013-12-10 11:04:00,33.2,32.2,30.23,NNW,335,0.0,0.0,96,0.00,,---,0.02,VWS V14.01,2013-12-10 16:04:00,
2013-12-10 11:09:00,33.2,32.2,30.22,NNW,335,0.0,0.0,96,0.00,,---,0.02,VWS V14.01,2013-12-10 16:09:00,
2013-12-10 11:14:00,33.3,32.3,30.22,NNW,335,0.0,0.0,96,0.00,,---,0.02,VWS V14.01,2013-12-10 16:14:00,
2013-12-10 11:19:00,33.4,32.4,30.22,NNW,335,0.0,0.0,96,0.00,,---,0.02,VWS V14.01,2013-12-10 16:19:00,
2013-12-10 11:24:00,33.4,32.4,30.22,NNW,335,0.0,0.0,96,0.00,,---,0.02,VWS V14.01,2013-12-10 16:24:00,
2013-12-10 11:29:00,33.4,32.4,30.22,NNW,335,0.0,0.0,96,0.00,,---,0.02,VWS V14.01,2013-12-10 16:29:00,
2013-12-10 11:34:00,33.5,32.5,30.21,NNW,335,0.0,0.0,96,0.00,,---,0.02,VWS V14.01,2013-12-10 16:34:00,
2013-12-10 11:39:00,33.7,32.7,30.21,NNW,335,0.0,0.0,96,0.00,,---,0.02,VWS V14.01,2013-12-10 16:39:00,
2013-12-10 11:44:00,33.8,32.8,30.22,NNW,335,0.0,0.0,96,0.00,,---,0.02,VWS V14.01,2013-12-10 16:44:00,
2013-12-10 11:49:00,33.9,32.9,30.22,NNW,335,0.0,0.0,96,0.00,,---,0.02,VWS V14.01,2013-12-10 16:49:00,
2013-12-10 11:54:00,33.7,32.7,30.22,NNW,335,0.0,0.0,96,0.00,,---,0.02,VWS V14.01,2013-12-10 16:54:00,
2013-12-10 11:59:00,33.6,32.6,30.23,NNW,335,0.0,0.0,96,0.01,,---,0.03,VWS V14.01,2013-12-10 16:59:00,
2013-12-10 12:04:00,33.7,32.7,30.23,NNW,335,0.0,0.0,96,0.01,,---,0.03,VWS V14.01,2013-12-10 17:04:00,
2013-12-10 12:10:00,33.6,32.6,30.23,NNW,335,0.0,0.0,96,0.01,,---,0.03,VWS V14.01,2013-12-10 17:10:00,
2013-12-10 12:15:00,33.6,32.6,30.23,NNW,335,0.0,0.0,96,0.01,,---,0.03,VWS V14.01,2013-12-10 17:15:00,
2013-12-10 12:20:00,34.6,33.6,30.23,NNW,335,0.0,0.0,96,0.01,,---,0.03,VWS V14.01,2013-12-10 17:20:00,
2013-12-10 12:25:00,35.0,34.0,30.22,NNW,335,0.0,0.0,96,0.01,,---,0.03,VWS V14.01,2013-12-10 17:25:00,
2013-12-10 12:30:00,35.6,34.6,30.23,NNW,335,0.0,0.0,96,0.01,,---,0.03,VWS V14.01,2013-12-10 17:30:00,
2013-12-10 12:35:00,35.5,34.5,30.23,NNW,334,0.0,0.0,96,0.01,,---,0.03,VWS V14.01,2013-12-10 17:35:00,
2013-12-10 12:40:00,35.0,34.0,30.23,NNW,334,0.0,0.0,96,0.02,,---,0.04,VWS V14.01,2013-12-10 17:40:00,
2013-12-10 12:45:00,34.7,33.9,30.22,NNW,334,0.0,0.0,97,0.02,,---,0.04,VWS V14.01,2013-12-10 17:45:00,
2013-12-10 12:50:00,35.2,34.2,30.22,NNW,334,0.0,1.0,96,0.02,,---,0.04,VWS V14.01,2013-12-10 17:50:00,
2013-12-10 12:55:00,35.5,34.7,30.22,WNW,298,0.0,2.0,97,0.02,,---,0.04,VWS V14.01,2013-12-10 17:55:00,
2013-12-10 13:00:00,35.7,34.7,30.22,WNW,298,1.0,1.0,96,0.01,,---,0.04,VWS V14.01,2013-12-10 18:00:00,
2013-12-10 13:05:00,35.2,34.2,30.21,WSW,238,2.0,3.0,96,0.01,,---,0.04,VWS V14.01,2013-12-10 18:05:00,
2013-12-10 13:10:00,34.7,33.9,30.21,SW,236,0.0,4.0,97,0.01,,---,0.04,VWS V14.01,2013-12-10 18:10:00,
2013-12-10 13:15:00,35.7,34.7,30.21,SW,236,1.0,4.0,96,0.01,,---,0.04,VWS V14.01,2013-12-10 18:15:00,
2013-12-10 13:20:00,36.3,35.3,30.21,SW,236,1.0,4.0,96,0.01,,---,0.04,VWS V14.01,2013-12-10 18:20:00,
2013-12-10 13:26:00,36.5,35.7,30.21,WSW,248,0.0,4.0,97,0.02,,---,0.05,VWS V14.01,2013-12-10 18:26:00,
2013-12-10 13:31:00,36.4,35.6,30.20,West,271,3.0,5.0,97,0.03,,---,0.06,VWS V14.01,2013-12-10 18:31:00,
2013-12-10 13:36:00,36.4,35.4,30.20,SSW,200,0.0,5.0,96,0.04,,---,0.07,VWS V14.01,2013-12-10 18:36:00,
2013-12-10 13:41:00,36.6,35.8,30.20,WSW,244,0.0,5.0,97,0.04,,---,0.07,VWS V14.01,2013-12-10 18:41:00,
2013-12-10 13:46:00,36.7,35.7,30.20,NW,321,2.0,6.0,96,0.05,,---,0.08,VWS V14.01,2013-12-10 18:46:00,
2013-12-10 13:51:00,36.6,35.6,30.21,WNW,292,1.0,6.0,96,0.06,,---,0.09,VWS V14.01,2013-12-10 18:51:00,
2013-12-10 13:56:00,36.8,35.8,30.21,NW,311,2.0,6.0,96,0.07,,---,0.10,VWS V14.01,2013-12-10 18:56:00,
2013-12-10 14:01:00,36.8,35.2,30.22,North,360,2.0,10.0,94,0.07,,---,0.11,VWS V14.01,2013-12-10 19:01:00,
2013-12-10 14:06:00,36.9,34.0,30.22,NNW,333,6.0,11.0,89,0.08,,---,0.12,VWS V14.01,2013-12-10 19:06:00,
2013-12-10 14:11:00,37.1,33.9,30.23,North,355,0.0,11.0,88,0.09,,---,0.13,VWS V14.01,2013-12-10 19:11:00,
2013-12-10 14:16:00,37.3,33.2,30.23,ENE,74,0.0,11.0,85,0.09,,---,0.13,VWS V14.01,2013-12-10 19:16:00,
2013-12-10 14:21:00,37.1,32.7,30.23,WNW,284,3.0,11.0,84,0.10,,---,0.14,VWS V14.01,2013-12-10 19:21:00,
2013-12-10 14:26:00,37.2,32.8,30.22,North,9,2.0,11.0,84,0.11,,---,0.15,VWS V14.01,2013-12-10 19:26:00,
2013-12-10 14:31:00,37.3,32.9,30.23,WNW,301,2.0,5.0,84,0.11,,---,0.16,VWS V14.01,2013-12-10 19:31:00,
2013-12-10 14:36:00,37.6,32.9,30.23,NW,323,0.0,5.0,83,0.11,,---,0.16,VWS V14.01,2013-12-10 19:36:00,
2013-12-10 14:42:00,38.2,32.9,30.23,NW,322,2.0,7.0,81,0.12,,---,0.17,VWS V14.01,2013-12-10 19:42:00,
2013-12-10 14:47:00,38.5,33.2,30.23,NNW,327,2.0,7.0,81,0.13,,---,0.18,VWS V14.01,2013-12-10 19:47:00,
2013-12-10 14:52:00,38.8,31.9,30.24,SW,224,3.0,10.0,76,0.14,,---,0.19,VWS V14.01,2013-12-10 19:52:00,
2013-12-10 14:57:00,38.8,31.2,30.24,WNW,301,7.0,11.0,74,0.15,,---,0.20,VWS V14.01,2013-12-10 19:57:00,
2013-12-10 15:02:00,38.7,30.1,30.24,NW,320,7.0,13.0,71,0.11,,---,0.21,VWS V14.01,2013-12-10 20:02:00,
2013-12-10 15:07:00,38.7,29.1,30.24,West,277,7.0,13.0,68,0.12,,---,0.22,VWS V14.01,2013-12-10 20:07:00,
2013-12-10 15:12:00,38.4,29.5,30.25,WSW,244,4.0,13.0,70,0.12,,---,0.22,VWS V14.01,2013-12-10 20:12:00,
2013-12-10 15:17:00,38.2,28.6,30.25,NNW,329,0.0,13.0,68,0.13,,---,0.23,VWS V14.01,2013-12-10 20:17:00,
2013-12-10 15:22:00,37.9,28.6,30.25,NE,36,2.0,13.0,69,0.13,,---,0.23,VWS V14.01,2013-12-10 20:22:00,
2013-12-10 15:27:00,37.4,27.5,30.25,WSW,252,4.0,13.0,67,0.14,,---,0.24,VWS V14.01,2013-12-10 20:27:00,
2013-12-10 15:32:00,37.3,27.0,30.25,West,269,2.0,11.0,66,0.09,,---,0.24,VWS V14.01,2013-12-10 20:32:00,
2013-12-10 15:37:00,37.3,26.3,30.26,WNW,290,5.0,11.0,64,0.09,,---,0.24,VWS V14.01,2013-12-10 20:37:00,
2013-12-10 15:43:00,37.1,27.5,30.26,West,277,0.0,11.0,68,0.09,,---,0.24,VWS V14.01,2013-12-10 20:43:00,
2013-12-10 15:48:00,37.0,27.8,30.27,West,280,7.0,11.0,69,0.10,,---,0.25,VWS V14.01,2013-12-10 20:48:00,
2013-12-10 15:53:00,36.8,26.5,30.26,SW,217,4.0,11.0,66,0.10,,---,0.25,VWS V14.01,2013-12-10 20:53:00,
2013-12-10 15:58:00,36.5,25.5,30.27,SSW,196,7.0,11.0,64,0.10,,---,0.25,VWS V14.01,2013-12-10 20:58:00,
2013-12-10 16:03:00,36.4,24.2,30.27,NW,312,4.0,13.0,61,0.05,,---,0.25,VWS V14.01,2013-12-10 21:03:00,
2013-12-10 16:08:00,36.4,23.0,30.27,NW,309,10.0,20.0,58,0.05,,---,0.25,VWS V14.01,2013-12-10 21:08:00,
2013-12-10 16:13:00,36.4,23.9,30.28,SW,235,7.0,20.0,60,0.05,,---,0.25,VWS V14.01,2013-12-10 21:13:00,
2013-12-10 16:18:00,36.2,22.9,30.28,WNW,285,2.0,20.0,58,0.05,,---,0.25,VWS V14.01,2013-12-10 21:18:00,
2013-12-10 16:23:00,36.2,24.1,30.29,NW,304,15.0,20.0,61,0.05,,---,0.25,VWS V14.01,2013-12-10 21:23:00,
2013-12-10 16:28:00,36.0,23.5,30.29,WSW,248,1.0,1.0,60,0.01,,---,0.25,VWS V14.01,2013-12-10 21:28:00,
2013-12-10 16:33:00,35.8,23.3,30.29,NW,315,3.0,10.0,60,0.01,,---,0.25,VWS V14.01,2013-12-10 21:33:00,
2013-12-10 16:38:00,35.6,22.7,30.30,West,279,0.0,10.0,59,0.01,,---,0.25,VWS V14.01,2013-12-10 21:38:00,
2013-12-10 16:43:00,35.5,22.6,30.30,West,267,1.0,12.0,59,0.01,,---,0.25,VWS V14.01,2013-12-10 21:43:00,
2013-12-10 16:48:00,35.2,23.9,30.31,WNW,294,0.0,12.0,63,0.01,,---,0.25,VWS V14.01,2013-12-10 21:48:00,
2013-12-10 16:53:00,35.0,22.9,30.31,NW,325,3.0,12.0,61,0.01,,---,0.25,VWS V14.01,2013-12-10 21:53:00,
2013-12-10 16:58:00,35.0,24.1,30.31,West,268,1.0,1.0,64,0.00,,---,0.25,VWS V14.01,2013-12-10 21:58:00,
2013-12-10 17:04:00,34.7,23.8,30.32,NNW,346,0.0,4.0,64,0.00,,---,0.25,VWS V14.01,2013-12-10 22:04:00,
2013-12-10 17:09:00,34.5,22.8,30.32,WNW,284,6.0,10.0,62,0.00,,---,0.25,VWS V14.01,2013-12-10 22:09:00,
2013-12-10 17:14:00,34.5,21.7,30.32,North,355,1.0,10.0,59,0.00,,---,0.25,VWS V14.01,2013-12-10 22:14:00,
2013-12-10 17:19:00,34.5,22.8,30.32,NNW,333,0.0,10.0,62,0.00,,---,0.25,VWS V14.01,2013-12-10 22:19:00,
2013-12-10 17:24:00,34.8,24.2,30.32,NNW,337,0.0,10.0,65,0.00,,---,0.25,VWS V14.01,2013-12-10 22:24:00,
2013-12-10 17:29:00,34.4,23.5,30.32,West,271,0.0,1.0,64,0.00,,---,0.25,VWS V14.01,2013-12-10 22:29:00,
2013-12-10 17:34:00,34.1,23.2,30.32,SE,140,2.0,3.0,64,0.00,,---,0.25,VWS V14.01,2013-12-10 22:34:00,
2013-12-10 17:39:00,34.1,22.8,30.31,SE,142,2.0,5.0,63,0.00,,---,0.25,VWS V14.01,2013-12-10 22:39:00,
2013-12-10 17:44:00,33.9,21.9,30.32,NW,326,3.0,5.0,61,0.00,,---,0.25,VWS V14.01,2013-12-10 22:44:00,
2013-12-10 17:49:00,33.9,24.5,30.32,SSW,203,0.0,6.0,68,0.00,,---,0.25,VWS V14.01,2013-12-10 22:49:00,
2013-12-10 17:54:00,34.2,23.3,30.31,SSW,203,0.0,6.0,64,0.00,,---,0.25,VWS V14.01,2013-12-10 22:54:00,
2013-12-10 17:59:00,34.3,21.9,30.32,SW,225,3.0,5.0,60,0.00,,---,0.25,VWS V14.01,2013-12-10 22:59:00,
2013-12-10 18:05:00,34.1,22.8,30.32,WSW,246,0.0,5.0,63,0.00,,---,0.25,VWS V14.01,2013-12-10 23:05:00,
2013-12-10 18:10:00,34.1,22.1,30.32,West,272,1.0,5.0,61,0.00,,---,0.25,VWS V14.01,2013-12-10 23:10:00,
2013-12-10 18:15:00,33.7,20.9,30.33,SW,228,3.0,6.0,59,0.00,,---,0.25,VWS V14.01,2013-12-10 23:15:00,
2013-12-10 18:20:00,33.4,20.6,30.33,SW,231,0.0,6.0,59,0.00,,---,0.25,VWS V14.01,2013-12-10 23:20:00,
2013-12-10 18:25:00,33.1,21.9,30.33,SW,217,0.0,6.0,63,0.00,,---,0.25,VWS V14.01,2013-12-10 23:25:00,
2013-12-10 18:30:00,33.0,21.4,30.32,SW,217,1.0,1.0,62,0.00,,---,0.25,VWS V14.01,2013-12-10 23:30:00,
2013-12-10 18:35:00,33.1,23.0,30.33,SW,217,0.0,1.0,66,0.00,,---,0.25,VWS V14.01,2013-12-10 23:35:00,
2013-12-10 18:40:00,33.6,23.1,30.33,SW,225,0.0,2.0,65,0.00,,---,0.25,VWS V14.01,2013-12-10 23:40:00,
2013-12-10 18:45:00,33.8,22.2,30.33,SW,225,0.0,2.0,62,0.00,,---,0.25,VWS V14.01,2013-12-10 23:45:00,
2013-12-10 18:50:00,33.5,21.1,30.33,SW,229,1.0,2.0,60,0.00,,---,0.25,VWS V14.01,2013-12-10 23:50:00,
2013-12-10 18:55:00,33.8,25.7,30.33,SW,222,0.0,4.0,72,0.00,,---,0.25,VWS V14.01,2013-12-10 23:55:00,
2013-12-10 19:00:00,34.0,23.1,30.33,SW,222,0.0,0.0,64,0.00,,---,0.25,VWS V14.01,2013-12-11 00:00:00,
2013-12-10 19:05:00,33.4,22.2,30.33,SW,222,0.0,0.0,63,0.00,,---,0.25,VWS V14.01,2013-12-11 00:05:00,
2013-12-10 19:10:00,32.8,23.1,30.34,SW,222,0.0,1.0,67,0.00,,---,0.25,VWS V14.01,2013-12-11 00:10:00,
2013-12-10 19:15:00,32.4,22.7,30.33,SW,222,0.0,1.0,67,0.00,,---,0.25,VWS V14.01,2013-12-11 00:15:00,
2013-12-10 19:20:00,32.0,21.6,30.34,SW,222,0.0,1.0,65,0.00,,---,0.25,VWS V14.01,2013-12-11 00:20:00,
2013-12-10 19:25:00,31.6,21.9,30.34,SW,222,0.0,1.0,67,0.00,,---,0.25,VWS V14.01,2013-12-11 00:25:00,
2013-12-10 19:31:00,31.4,21.4,30.34,SW,222,0.0,0.0,66,0.00,,---,0.25,VWS V14.01,2013-12-11 00:31:00,
2013-12-10 19:36:00,31.0,21.3,30.34,SW,222,0.0,0.0,67,0.00,,---,0.25,VWS V14.01,2013-12-11 00:36:00,
2013-12-10 19:41:00,30.6,21.0,30.34,SW,222,0.0,1.0,67,0.00,,---,0.25,VWS V14.01,2013-12-11 00:41:00,
2013-12-10 19:46:00,30.3,20.3,30.35,SW,222,0.0,1.0,66,0.00,,---,0.25,VWS V14.01,2013-12-11 00:46:00,
2013-12-10 19:51:00,30.2,21.6,30.35,WNW,284,3.0,4.0,70,0.00,,---,0.25,VWS V14.01,2013-12-11 00:51:00,
2013-12-10 19:56:00,30.1,20.8,30.35,WNW,288,0.0,4.0,68,0.00,,---,0.25,VWS V14.01,2013-12-11 00:56:00,
2013-12-10 20:01:00,30.1,21.5,30.35,WNW,298,0.0,2.0,70,0.00,,---,0.25,VWS V14.01,2013-12-11 01:01:00,
2013-12-10 20:06:00,30.2,21.3,30.36,WNW,298,0.0,4.0,69,0.00,,---,0.25,VWS V14.01,2013-12-11 01:06:00,
2013-12-10 20:11:00,30.2,20.6,30.35,WNW,294,0.0,4.0,67,0.00,,---,0.25,VWS V14.01,2013-12-11 01:11:00,
2013-12-10 20:16:00,30.3,21.0,30.36,NW,325,0.0,4.0,68,0.00,,---,0.25,VWS V14.01,2013-12-11 01:16:00,
2013-12-10 20:21:00,30.3,20.3,30.35,SW,232,0.0,6.0,66,0.00,,---,0.25,VWS V14.01,2013-12-11 01:21:00,
2013-12-10 20:26:00,30.5,20.5,30.35,WNW,296,1.0,6.0,66,0.00,,---,0.25,VWS V14.01,2013-12-11 01:26:00,
2013-12-10 20:31:00,30.4,20.4,30.35,NW,317,0.0,2.0,66,0.00,,---,0.25,VWS V14.01,2013-12-11 01:31:00,
2013-12-10 20:36:00,30.1,20.8,30.36,West,267,3.0,3.0,68,0.00,,---,0.25,VWS V14.01,2013-12-11 01:36:00,
2013-12-10 20:41:00,29.9,20.3,30.36,WNW,290,0.0,3.0,67,0.00,,---,0.25,VWS V14.01,2013-12-11 01:41:00,
2013-12-10 20:47:00,29.8,20.5,30.36,WNW,288,0.0,3.0,68,0.00,,---,0.25,VWS V14.01,2013-12-11 01:47:00,
2013-12-10 20:52:00,30.0,22.1,30.36,WSW,241,0.0,3.0,72,0.00,,---,0.25,VWS V14.01,2013-12-11 01:52:00,
2013-12-10 20:57:00,30.2,20.2,30.36,NW,309,0.0,3.0,66,0.00,,---,0.25,VWS V14.01,2013-12-11 01:57:00,
2013-12-10 21:02:00,30.1,20.1,30.36,NW,309,0.0,1.0,66,0.00,,---,0.25,VWS V14.01,2013-12-11 02:02:00,
2013-12-10 21:07:00,30.1,20.5,30.36,NW,309,0.0,1.0,67,0.00,,---,0.25,VWS V14.01,2013-12-11 02:07:00,
2013-12-10 21:12:00,29.9,19.9,30.36,NW,311,0.0,3.0,66,0.00,,---,0.25,VWS V14.01,2013-12-11 02:12:00,
2013-12-10 21:17:00,29.8,20.5,30.36,NNW,327,0.0,3.0,68,0.00,,---,0.25,VWS V14.01,2013-12-11 02:17:00,
2013-12-10 21:22:00,29.7,21.8,30.37,NNW,327,0.0,3.0,72,0.00,,---,0.25,VWS V14.01,2013-12-11 02:22:00,
2013-12-10 21:27:00,29.5,21.9,30.37,NNW,327,1.0,3.0,73,0.00,,---,0.25,VWS V14.01,2013-12-11 02:27:00,
2013-12-10 21:32:00,29.4,21.5,30.38,South,175,0.0,3.0,72,0.00,,---,0.25,VWS V14.01,2013-12-11 02:32:00,
2013-12-10 21:37:00,29.3,20.4,30.38,South,175,0.0,3.0,69,0.00,,---,0.25,VWS V14.01,2013-12-11 02:37:00,
2013-12-10 21:42:00,29.3,20.4,30.38,SSE,165,2.0,3.0,69,0.00,,---,0.25,VWS V14.01,2013-12-11 02:42:00,
2013-12-10 21:47:00,29.3,19.7,30.39,SSE,167,0.0,3.0,67,0.00,,---,0.25,VWS V14.01,2013-12-11 02:47:00,
2013-12-10 21:52:00,29.2,19.3,30.39,SSE,167,1.0,3.0,66,0.00,,---,0.25,VWS V14.01,2013-12-11 02:52:00,
2013-12-10 21:57:00,29.4,19.5,30.40,SSE,167,0.0,3.0,66,0.00,,---,0.25,VWS V14.01,2013-12-11 02:57:00,
2013-12-10 22:03:00,30.8,22.5,30.40,SSE,167,0.0,0.0,71,0.00,,---,0.25,VWS V14.01,2013-12-11 03:03:00,
2013-12-10 22:08:00,31.1,21.1,30.40,SSE,167,0.0,2.0,66,0.00,,---,0.25,VWS V14.01,2013-12-11 03:08:00,
2013-12-10 22:13:00,32.0,23.0,30.40,SSE,167,0.0,2.0,69,0.00,,---,0.25,VWS V14.01,2013-12-11 03:13:00,
2013-12-10 22:18:00,31.4,19.9,30.40,SSE,167,1.0,2.0,62,0.00,,---,0.25,VWS V14.01,2013-12-11 03:18:00,
2013-12-10 22:23:00,30.7,20.3,30.40,SSE,167,0.0,2.0,65,0.00,,---,0.25,VWS V14.01,2013-12-11 03:23:00,
2013-12-10 22:28:00,30.8,20.4,30.41,SSE,167,0.0,2.0,65,0.00,,---,0.25,VWS V14.01,2013-12-11 03:28:00,
2013-12-10 22:33:00,30.9,21.2,30.41,SSE,167,0.0,0.0,67,0.00,,---,0.25,VWS V14.01,2013-12-11 03:33:00,
2013-12-10 22:38:00,30.8,19.0,30.41,SSE,168,0.0,2.0,61,0.00,,---,0.25,VWS V14.01,2013-12-11 03:38:00,
2013-12-10 22:43:00,30.4,19.0,30.41,SSE,168,0.0,2.0,62,0.00,,---,0.25,VWS V14.01,2013-12-11 03:43:00,
2013-12-10 22:48:00,29.9,18.9,30.41,SSE,168,0.0,2.0,63,0.00,,---,0.25,VWS V14.01,2013-12-11 03:48:00,
2013-12-10 22:53:00,29.7,20.1,30.41,SSE,168,0.0,2.0,67,0.00,,---,0.25,VWS V14.01,2013-12-11 03:53:00,
2013-12-10 22:58:00,29.6,19.3,30.41,SSE,168,0.0,0.0,65,0.00,,---,0.25,VWS V14.01,2013-12-11 03:58:00,
2013-12-10 23:03:00,29.5,18.1,30.41,SSE,168,0.0,1.0,62,0.00,,---,0.25,VWS V14.01,2013-12-11 04:03:00,
2013-12-10 23:09:00,29.4,19.1,30.41,SSE,167,0.0,1.0,65,0.00,,---,0.25,VWS V14.01,2013-12-11 04:09:00,
2013-12-10 23:14:00,29.0,18.0,30.41,SSE,167,0.0,1.0,63,0.00,,---,0.25,VWS V14.01,2013-12-11 04:14:00,
2013-12-10 23:19:00,28.7,18.1,30.41,SSE,167,0.0,1.0,64,0.00,,---,0.25,VWS V14.01,2013-12-11 04:19:00,
2013-12-10 23:24:00,28.7,17.7,30.41,SSE,167,0.0,1.0,63,0.00,,---,0.25,VWS V14.01,2013-12-11 04:24:00,
2013-12-10 23:29:00,28.8,18.9,30.41,SSE,167,0.0,0.0,66,0.00,,---,0.25,VWS V14.01,2013-12-11 04:29:00,
2013-12-10 23:34:00,28.8,18.9,30.41,SSE,167,0.0,0.0,66,0.00,,---,0.25,VWS V14.01,2013-12-11 04:34:00,
2013-12-10 23:39:00,28.6,18.0,30.41,WNW,302,0.0,2.0,64,0.00,,---,0.25,VWS V14.01,2013-12-11 04:39:00,
2013-12-10 23:44:00,28.9,18.3,30.41,WNW,294,1.0,4.0,64,0.00,,---,0.25,VWS V14.01,2013-12-11 04:44:00,
2013-12-10 23:49:00,29.1,17.7,30.42,WNW,294,0.0,4.0,62,0.00,,---,0.25,VWS V14.01,2013-12-11 04:49:00,
2013-12-10 23:54:00,29.2,18.9,30.42,WNW,300,1.0,4.0,65,0.00,,---,0.25,VWS V14.01,2013-12-11 04:54:00,
2013-12-10 23:59:00,29.2,18.2,30.42,WNW,300,0.0,1.0,63,0.00,,---,0.00,VWS V14.01,2013-12-11 04:59:00,